Terminal Aerodrome Forecast
Issued by NWS

Home | Current Version | Previous Version | Text Only | Print | Product List | Glossary On
Versions: 1 2 3 4 5 6 7 8 9 10 11 12 13 14 15 16 17
000
FTUS43 KIND 201100
TAFLAF
TAF
KLAF 201120Z 2012/2112 00000KT 5SM BR OVC025
     FM201600 VRB03KT P6SM OVC028
     FM210300 16003KT P6SM SCT030 BKN060
      AMD LTD TO CLD VIS AND WIND TIL 201400=

USA.gov is the U.S. government's official web portal to all federal, state and local government web resources and services.